createdAt,value
2022-12-18T00:01:35.296Z,101650.31
2022-12-18T00:04:12.191Z,101656.93
2022-12-18T00:06:39.808Z,101662.91
2022-12-18T00:09:10.013Z,101669.13
2022-12-18T00:11:37.612Z,101672.08
2022-12-18T00:14:05.301Z,101678.48
2022-12-18T00:16:33.087Z,101682.94
2022-12-18T00:19:01.103Z,101685.02
2022-12-18T00:21:30.034Z,101690.41
2022-12-18T00:23:58.759Z,101697.48
2022-12-18T00:26:32.042Z,101705.95
2022-12-18T00:29:05.292Z,101709.28
2022-12-18T00:31:34.009Z,101713.90
2022-12-18T00:34:02.149Z,101718.19
2022-12-18T00:36:33.368Z,101716.66
2022-12-18T00:39:03.028Z,101714.71
2022-12-18T00:41:30.653Z,101719.71
2022-12-18T00:43:58.217Z,101722.33
2022-12-18T00:46:25.783Z,101721.72
2022-12-18T00:48:53.466Z,101730.55
2022-12-18T00:51:21.364Z,101738.41
2022-12-18T00:53:48.992Z,101741.92
2022-12-18T00:56:16.579Z,101744.37
2022-12-18T00:58:44.189Z,101748.73
2022-12-18T01:01:11.841Z,101750.87
2022-12-18T01:03:39.774Z,101749.83
2022-12-18T01:06:11.055Z,101756.53
2022-12-18T01:08:39.685Z,101759.63
2022-12-18T01:11:13.112Z,101757.51
2022-12-18T01:13:41.767Z,101765.08
2022-12-18T01:16:13.048Z,101763.27
2022-12-18T01:18:40.809Z,101767.78
2022-12-18T01:21:10.652Z,101765.19
2022-12-18T01:23:38.862Z,101770.12
2022-12-18T01:26:16.735Z,101771.33
2022-12-18T01:28:45.044Z,101773.29
2022-12-18T01:31:12.739Z,101777.70
2022-12-18T01:33:40.782Z,101781.17
2022-12-18T01:36:09.635Z,101783.91
2022-12-18T01:38:37.193Z,101784.05
2022-12-18T01:41:04.798Z,101784.13
2022-12-18T01:43:46.863Z,101782.82
2022-12-18T01:46:15.542Z,101787.27
2022-12-18T01:48:44.791Z,101790.50
2022-12-18T01:51:13.443Z,101794.34
2022-12-18T01:53:43.635Z,101798.52
2022-12-18T01:56:15.538Z,101798.55
2022-12-18T01:58:59.399Z,101802.55
2022-12-18T02:01:27.302Z,101809.82
2022-12-18T02:03:55.020Z,101811.96
2022-12-18T02:06:38.813Z,101816.07
2022-12-18T02:09:16.080Z,101812.89
2022-12-18T02:12:00.556Z,101815.97
2022-12-18T02:14:48.077Z,101817.99
2022-12-18T02:17:38.202Z,101816.53
2022-12-18T02:20:32.995Z,101824.80
2022-12-18T02:23:28.430Z,101825.23
2022-12-18T02:26:16.224Z,101827.52
2022-12-18T02:28:50.179Z,101826.27
2022-12-18T02:31:24.377Z,101828.90
2022-12-18T02:33:56.105Z,101836.25
2022-12-18T02:36:26.476Z,101839.29
2022-12-18T02:38:56.549Z,101838.77
2022-12-18T02:41:24.757Z,101845.38
2022-12-18T02:44:02.971Z,101847.79
2022-12-18T02:46:37.558Z,101851.02
2022-12-18T02:49:22.955Z,101846.54
2022-12-18T02:52:01.012Z,101844.38
2022-12-18T02:54:52.829Z,101852.63
2022-12-18T02:57:31.409Z,101857.04
2022-12-18T03:00:09.379Z,101864.90
2022-12-18T03:02:45.798Z,101868.74
2022-12-18T03:05:35.864Z,101874.38
2022-12-18T03:08:19.725Z,101876.64
2022-12-18T03:10:57.112Z,101874.83
2022-12-18T03:13:35.818Z,101878.15
2022-12-18T03:16:08.089Z,101880.52
2022-12-18T03:18:51.046Z,101883.89
2022-12-18T03:21:24.240Z,101885.70
2022-12-18T03:23:54.403Z,101891.88
2022-12-18T03:26:26.278Z,101886.88
2022-12-18T03:29:08.952Z,101891.05
2022-12-18T03:31:40.949Z,101899.88
2022-12-18T03:34:18.294Z,101898.86
2022-12-18T03:36:46.206Z,101909.70
2022-12-18T03:39:14.066Z,101910.45
2022-12-18T03:42:07.852Z,101912.08
2022-12-18T03:44:41.397Z,101915.08
2022-12-18T03:47:11.552Z,101913.94
2022-12-18T03:49:48.232Z,101917.66
2022-12-18T03:52:34.307Z,101923.29
2022-12-18T03:55:04.390Z,101921.90
2022-12-18T03:57:33.889Z,101918.34
2022-12-18T04:00:06.911Z,101920.95
2022-12-18T04:02:37.115Z,101923.20
2022-12-18T04:05:07.644Z,101924.11
2022-12-18T04:07:36.401Z,101926.83
2022-12-18T04:10:06.364Z,101934.15
2022-12-18T04:12:33.961Z,101933.13
2022-12-18T04:15:01.549Z,101939.96
2022-12-18T04:17:29.180Z,101937.05
2022-12-18T04:19:56.762Z,101939.65
2022-12-18T04:22:24.340Z,101937.26
2022-12-18T04:24:51.912Z,101942.98
2022-12-18T04:27:19.580Z,101940.66
2022-12-18T04:29:47.202Z,101945.01
2022-12-18T04:32:14.774Z,101943.75
2022-12-18T04:34:42.318Z,101946.06
2022-12-18T04:37:09.929Z,101944.79
2022-12-18T04:39:37.685Z,101946.52
2022-12-18T04:42:05.312Z,101952.88
2022-12-18T04:44:32.884Z,101954.72
2022-12-18T04:47:00.542Z,101958.64
2022-12-18T04:49:28.118Z,101971.17
2022-12-18T04:51:55.901Z,101973.52
2022-12-18T04:54:23.490Z,101978.55
2022-12-18T04:56:51.214Z,101980.60
2022-12-18T04:59:18.799Z,101987.90
2022-12-18T05:01:46.541Z,101987.71
2022-12-18T05:04:14.528Z,101986.13
2022-12-18T05:06:42.103Z,101986.60
2022-12-18T05:09:09.718Z,101988.73
2022-12-18T05:11:37.323Z,101993.29
2022-12-18T05:14:04.939Z,101996.31
2022-12-18T05:16:32.614Z,102002.01
2022-12-18T05:19:00.331Z,102004.55
2022-12-18T05:21:27.894Z,102008.01
2022-12-18T05:23:55.487Z,102003.45
2022-12-18T05:26:23.072Z,102008.91
2022-12-18T05:28:50.639Z,102005.14
2022-12-18T05:31:18.263Z,102012.88
2022-12-18T05:33:45.840Z,102022.09
2022-12-18T05:36:13.462Z,102026.64
2022-12-18T05:38:41.581Z,102031.10
2022-12-18T05:41:10.364Z,102029.33
2022-12-18T05:43:40.572Z,102032.80
2022-12-18T05:46:12.967Z,102035.09
2022-12-18T05:48:40.942Z,102035.00
2022-12-18T05:51:11.085Z,102033.38
2022-12-18T05:53:39.816Z,102037.67
2022-12-18T05:56:14.192Z,102043.70
2022-12-18T05:58:42.127Z,102047.05
2022-12-18T06:01:31.352Z,102049.30
2022-12-18T06:03:59.027Z,102050.42
2022-12-18T06:06:29.056Z,102050.25
2022-12-18T06:08:57.800Z,102049.31
2022-12-18T06:11:27.538Z,102051.54
2022-12-18T06:13:59.072Z,102055.04
2022-12-18T06:16:28.598Z,102056.61
2022-12-18T06:19:04.450Z,102054.11
2022-12-18T06:21:33.372Z,102056.48
2022-12-18T06:24:01.363Z,102057.95
2022-12-18T06:26:29.018Z,102065.66
2022-12-18T06:28:56.787Z,102074.97
2022-12-18T06:31:24.921Z,102080.46
2022-12-18T06:33:52.672Z,102091.57
2022-12-18T06:36:20.233Z,102094.04
2022-12-18T06:38:47.941Z,102100.38
2022-12-18T06:41:18.788Z,102105.21
2022-12-18T06:43:46.396Z,102106.63
2022-12-18T06:46:14.196Z,102113.48
2022-12-18T06:48:41.908Z,102117.35
2022-12-18T06:51:09.574Z,102117.80
2022-12-18T06:53:37.367Z,102114.35
2022-12-18T06:56:10.725Z,102114.11
2022-12-18T06:58:39.973Z,102113.89
2022-12-18T07:01:10.617Z,102119.05
2022-12-18T07:03:40.241Z,102128.86
2022-12-18T07:06:15.375Z,102134.08
2022-12-18T07:08:43.174Z,102138.80
2022-12-18T07:11:10.785Z,102138.41
2022-12-18T07:13:38.877Z,102138.73
2022-12-18T07:16:19.622Z,102145.40
2022-12-18T07:18:51.836Z,102148.20
2022-12-18T07:21:20.738Z,102153.89
2022-12-18T07:23:48.403Z,102157.94
2022-12-18T07:26:19.153Z,102160.59
2022-12-18T07:28:47.104Z,102166.94
2022-12-18T07:31:21.532Z,102169.15
2022-12-18T07:33:51.042Z,102170.02
2022-12-18T07:36:19.422Z,102181.60
2022-12-18T07:38:50.891Z,102183.98
2022-12-18T07:41:18.653Z,102187.55
2022-12-18T07:43:47.974Z,102190.08
2022-12-18T07:46:17.267Z,102187.66
2022-12-18T07:48:49.146Z,102190.84
2022-12-18T07:51:18.687Z,102194.96
2022-12-18T07:53:46.728Z,102200.05
2022-12-18T07:56:32.637Z,102201.41
2022-12-18T07:59:00.624Z,102212.46
2022-12-18T08:01:28.604Z,102215.70
2022-12-18T08:03:56.836Z,102221.13
2022-12-18T08:06:24.886Z,102222.66
2022-12-18T08:08:54.269Z,102229.20
2022-12-18T08:11:22.872Z,102229.23
2022-12-18T08:13:50.884Z,102226.41
2022-12-18T08:16:19.214Z,102228.45
2022-12-18T08:18:48.034Z,102228.03
2022-12-18T08:21:18.924Z,102228.05
2022-12-18T08:23:49.252Z,102228.40
2022-12-18T08:26:22.049Z,102230.89
2022-12-18T08:28:50.937Z,102229.64
2022-12-18T08:31:19.777Z,102228.55
2022-12-18T08:33:50.381Z,102227.96
2022-12-18T08:36:18.203Z,102229.45
2022-12-18T08:38:46.137Z,102232.73
2022-12-18T08:41:16.575Z,102234.80
2022-12-18T08:43:44.261Z,102231.36
2022-12-18T08:46:12.556Z,102227.51
2022-12-18T08:48:40.275Z,102227.98
2022-12-18T08:51:08.023Z,102224.05
2022-12-18T08:53:35.978Z,102215.48
2022-12-18T08:56:04.507Z,102220.27
2022-12-18T08:58:32.161Z,102227.33
2022-12-18T09:01:04.503Z,102234.19
2022-12-18T09:03:33.372Z,102235.01
2022-12-18T09:06:01.019Z,102240.84
2022-12-18T09:08:29.401Z,102249.77
2022-12-18T09:10:57.055Z,102252.59
2022-12-18T09:13:24.874Z,102250.03
2022-12-18T09:15:54.669Z,102239.88
2022-12-18T09:18:24.271Z,102238.92
2022-12-18T09:20:52.169Z,102239.65
2022-12-18T09:23:20.770Z,102237.39
2022-12-18T09:25:49.140Z,102236.72
2022-12-18T09:28:19.173Z,102233.63
2022-12-18T09:30:49.470Z,102234.73
2022-12-18T09:33:18.081Z,102238.83
2022-12-18T09:35:46.886Z,102241.60
2022-12-18T09:38:17.470Z,102249.33
2022-12-18T09:40:49.007Z,102250.30
2022-12-18T09:43:29.295Z,102249.75
2022-12-18T09:46:02.252Z,102251.95
2022-12-18T09:48:35.672Z,102251.30
2022-12-18T09:51:10.136Z,102253.34
2022-12-18T09:53:39.728Z,102250.73
2022-12-18T09:56:13.228Z,102255.29
2022-12-18T09:58:46.162Z,102253.23
2022-12-18T10:01:22.453Z,102247.08
2022-12-18T10:03:51.521Z,102245.72
2022-12-18T10:06:30.217Z,102241.70
2022-12-18T10:09:22.356Z,102239.81
2022-12-18T10:12:04.234Z,102242.68
2022-12-18T10:14:55.883Z,102230.60
2022-12-18T10:17:40.940Z,102228.49
2022-12-18T10:20:21.946Z,102229.63
2022-12-18T10:22:49.466Z,102229.25
2022-12-18T10:25:35.503Z,102218.34
2022-12-18T10:28:15.761Z,102214.60
2022-12-18T10:30:44.245Z,102218.33
2022-12-18T10:33:23.752Z,102210.30
2022-12-18T10:35:53.204Z,102204.98
2022-12-18T10:38:27.628Z,102209.15
2022-12-18T10:40:59.509Z,102203.72
2022-12-18T10:43:32.578Z,102200.38
2022-12-18T10:46:09.036Z,102204.89
2022-12-18T10:48:49.904Z,102207.92
2022-12-18T10:51:34.371Z,102212.85
2022-12-18T10:54:06.462Z,102213.50
2022-12-18T10:56:38.891Z,102207.64
2022-12-18T10:59:12.558Z,102209.92
2022-12-18T11:01:46.599Z,102206.77
2022-12-18T11:04:20.028Z,102206.73
2022-12-18T11:07:02.852Z,102212.78
2022-12-18T11:09:36.162Z,102212.02
2022-12-18T11:12:24.358Z,102206.13
2022-12-18T11:14:54.374Z,102209.73
2022-12-18T11:17:36.663Z,102211.23
2022-12-18T11:20:27.354Z,102208.80
2022-12-18T11:22:58.202Z,102213.14
2022-12-18T11:25:34.607Z,102208.48
2022-12-18T11:28:05.341Z,102207.79
2022-12-18T11:30:37.690Z,102200.60
2022-12-18T11:33:26.612Z,102203.53
2022-12-18T11:36:02.895Z,102203.38
2022-12-18T11:38:35.309Z,102196.43
2022-12-18T11:41:12.604Z,102192.56
2022-12-18T11:43:46.094Z,102186.11
2022-12-18T11:46:25.107Z,102192.03
2022-12-18T11:49:12.670Z,102193.89
2022-12-18T11:51:51.416Z,102191.79
2022-12-18T11:54:19.250Z,102185.80
2022-12-18T11:56:57.199Z,102184.81
2022-12-18T12:00:04.669Z,102182.79
2022-12-18T12:03:08.018Z,102189.47
2022-12-18T12:06:02.713Z,102190.05
2022-12-18T12:08:36.311Z,102186.64
2022-12-18T12:11:04.014Z,102183.16
2022-12-18T12:14:05.954Z,102184.65
2022-12-18T12:16:49.209Z,102184.38
2022-12-18T12:19:27.494Z,102190.59
2022-12-18T12:22:03.820Z,102191.84
2022-12-18T12:24:52.762Z,102191.23
2022-12-18T12:27:42.006Z,102188.17
2022-12-18T12:30:21.594Z,102195.13
2022-12-18T12:33:06.371Z,102195.38
2022-12-18T12:35:51.321Z,102198.40
2022-12-18T12:38:26.333Z,102201.62
2022-12-18T12:41:07.015Z,102203.04
2022-12-18T12:43:50.275Z,102202.77
2022-12-18T12:46:22.708Z,102203.98
2022-12-18T12:48:52.545Z,102203.45
2022-12-18T12:51:33.701Z,102209.08
2022-12-18T12:54:05.218Z,102214.39
2022-12-18T12:57:00.265Z,102218.52
2022-12-18T12:59:43.147Z,102226.90
2022-12-18T13:02:48.556Z,102236.08
2022-12-18T13:05:41.442Z,102240.30
2022-12-18T13:08:11.763Z,102243.89
2022-12-18T13:10:43.781Z,102241.95
2022-12-18T13:13:17.131Z,102253.48
2022-12-18T13:16:05.188Z,102256.20
2022-12-18T13:18:34.747Z,102258.79
2022-12-18T13:21:14.312Z,102260.41
2022-12-18T13:23:42.391Z,102261.92
2022-12-18T13:26:24.784Z,102263.55
2022-12-18T13:28:57.705Z,102262.36
2022-12-18T13:31:37.204Z,102269.64
2022-12-18T13:34:26.837Z,102274.96
2022-12-18T13:36:58.061Z,102283.30
2022-12-18T13:39:35.417Z,102282.45
2022-12-18T13:42:06.459Z,102286.84
2022-12-18T13:44:40.663Z,102296.30
2022-12-18T13:47:37.455Z,102289.77
2022-12-18T13:50:28.549Z,102296.52
2022-12-18T13:53:00.356Z,102301.98
2022-12-18T13:55:28.026Z,102299.02
2022-12-18T13:58:13.677Z,102301.15
2022-12-18T14:00:45.010Z,102298.32
2022-12-18T14:03:26.148Z,102308.80
2022-12-18T14:05:57.530Z,102308.04
2022-12-18T14:08:34.954Z,102308.00
2022-12-18T14:11:05.136Z,102302.77
2022-12-18T14:13:43.301Z,102303.20
2022-12-18T14:16:14.960Z,102304.73
2022-12-18T14:19:00.967Z,102304.83
2022-12-18T14:21:50.753Z,102308.20
2022-12-18T14:24:21.407Z,102307.35
2022-12-18T14:26:50.839Z,102310.14
2022-12-18T14:29:24.417Z,102306.00
2022-12-18T14:32:18.127Z,102308.30
2022-12-18T14:34:50.252Z,102306.01
2022-12-18T14:37:22.638Z,102311.23
2022-12-18T14:40:13.672Z,102313.95
2022-12-18T14:42:41.296Z,102317.90
2022-12-18T14:45:46.512Z,102319.92
2022-12-18T14:48:23.557Z,102331.14
2022-12-18T14:51:06.525Z,102340.10
2022-12-18T14:53:35.993Z,102344.84
2022-12-18T14:56:13.330Z,102347.16
2022-12-18T14:58:46.348Z,102356.89
2022-12-18T15:01:31.957Z,102361.59
2022-12-18T15:04:01.886Z,102361.02
2022-12-18T15:06:38.536Z,102363.80
2022-12-18T15:09:26.807Z,102361.80
2022-12-18T15:11:59.420Z,102363.19
2022-12-18T15:14:42.608Z,102373.41
2022-12-18T15:17:22.983Z,102375.79
2022-12-18T15:20:00.049Z,102380.14
2022-12-18T15:22:29.422Z,102378.23
2022-12-18T15:24:58.966Z,102384.31
2022-12-18T15:27:29.255Z,102388.41
2022-12-18T15:30:08.990Z,102390.42
2022-12-18T15:32:38.334Z,102391.20
2022-12-18T15:35:12.021Z,102395.44
2022-12-18T15:37:39.820Z,102395.23
2022-12-18T15:40:13.290Z,102402.52
2022-12-18T15:42:41.468Z,102411.40
2022-12-18T15:45:13.288Z,102405.30
2022-12-18T15:47:41.621Z,102406.88
2022-12-18T15:50:09.752Z,102410.35
2022-12-18T15:52:44.037Z,102415.41
2022-12-18T15:55:17.382Z,102419.73
2022-12-18T15:57:44.983Z,102427.15
2022-12-18T16:00:13.426Z,102433.56
2022-12-18T16:02:41.225Z,102440.66
2022-12-18T16:05:19.483Z,102439.46
2022-12-18T16:07:47.713Z,102433.23
2022-12-18T16:10:16.110Z,102435.08
2022-12-18T16:12:44.128Z,102437.39
2022-12-18T16:15:14.176Z,102437.15
2022-12-18T16:17:41.802Z,102440.83
2022-12-18T16:20:22.463Z,102438.26
2022-12-18T16:22:50.374Z,102446.94
2022-12-18T16:25:27.116Z,102444.77
2022-12-18T16:27:55.988Z,102449.60
2022-12-18T16:30:32.746Z,102456.21
2022-12-18T16:33:07.521Z,102462.27
2022-12-18T16:35:35.445Z,102469.69
2022-12-18T16:38:03.063Z,102469.65
2022-12-18T16:40:33.101Z,102471.80
2022-12-18T16:43:00.683Z,102470.94
2022-12-18T16:45:28.457Z,102472.20
2022-12-18T16:47:56.055Z,102474.91
2022-12-18T16:50:23.644Z,102476.47
2022-12-18T16:52:51.194Z,102482.23
2022-12-18T16:55:21.804Z,102487.45
2022-12-18T16:57:49.369Z,102490.08
2022-12-18T17:00:17.276Z,102491.59
2022-12-18T17:02:45.027Z,102484.54
2022-12-18T17:05:12.795Z,102479.14
2022-12-18T17:07:40.370Z,102484.65
2022-12-18T17:10:08.214Z,102484.84
2022-12-18T17:12:37.482Z,102477.27
2022-12-18T17:15:05.596Z,102472.02
2022-12-18T17:17:33.297Z,102471.83
2022-12-18T17:20:01.070Z,102464.98
2022-12-18T17:22:28.713Z,102470.32
2022-12-18T17:24:56.296Z,102461.36
2022-12-18T17:27:23.852Z,102465.73
2022-12-18T17:29:51.404Z,102467.19
2022-12-18T17:32:19.012Z,102475.05
2022-12-18T17:34:47.010Z,102470.60
2022-12-18T17:37:14.864Z,102477.59
2022-12-18T17:39:42.628Z,102474.98
2022-12-18T17:42:12.041Z,102470.50
2022-12-18T17:44:44.182Z,102474.42
2022-12-18T17:47:13.368Z,102476.83
2022-12-18T17:49:41.153Z,102476.19
2022-12-18T17:52:09.300Z,102490.27
2022-12-18T17:54:37.488Z,102495.14
2022-12-18T17:57:05.479Z,102493.76
2022-12-18T17:59:33.175Z,102491.10
2022-12-18T18:02:00.928Z,102484.70
2022-12-18T18:04:28.716Z,102482.58
2022-12-18T18:06:56.293Z,102481.81
2022-12-18T18:09:23.976Z,102478.38
2022-12-18T18:11:52.282Z,102474.44
2022-12-18T18:14:22.065Z,102477.76
2022-12-18T18:16:51.502Z,102487.04
2022-12-18T18:19:21.558Z,102486.59
2022-12-18T18:21:53.686Z,102488.29
2022-12-18T18:24:23.560Z,102490.25
2022-12-18T18:26:51.686Z,102491.77
2022-12-18T18:29:23.051Z,102489.70
2022-12-18T18:31:51.000Z,102493.09
2022-12-18T18:34:22.299Z,102490.41
2022-12-18T18:36:50.357Z,102488.15
2022-12-18T18:39:18.600Z,102485.40
2022-12-18T18:41:48.296Z,102494.07
2022-12-18T18:44:18.723Z,102497.27
2022-12-18T18:46:46.949Z,102504.19
2022-12-18T18:49:15.173Z,102508.58
2022-12-18T18:51:42.936Z,102506.99
2022-12-18T18:54:10.760Z,102509.77
2022-12-18T18:57:04.157Z,102512.41
2022-12-18T18:59:31.173Z,102517.33
2022-12-18T19:02:00.767Z,102516.02
2022-12-18T19:04:33.343Z,102523.34
2022-12-18T19:07:01.091Z,102522.77
2022-12-18T19:09:28.810Z,102522.85
2022-12-18T19:11:57.479Z,102527.16
2022-12-18T19:14:25.329Z,102531.38
2022-12-18T19:16:52.993Z,102535.65
2022-12-18T19:19:23.613Z,102535.30
2022-12-18T19:21:51.407Z,102536.63
2022-12-18T19:24:19.022Z,102535.65
2022-12-18T19:26:46.606Z,102536.45
2022-12-18T19:29:14.182Z,102549.08
2022-12-18T19:31:42.027Z,102553.09
2022-12-18T19:34:09.703Z,102549.20
2022-12-18T19:36:39.483Z,102553.01
2022-12-18T19:39:11.194Z,102562.85
2022-12-18T19:41:39.263Z,102563.40
2022-12-18T19:44:08.652Z,102561.37
2022-12-18T19:46:37.124Z,102560.42
2022-12-18T19:49:10.757Z,102565.52
2022-12-18T19:51:39.015Z,102567.70
2022-12-18T19:54:06.632Z,102571.07
2022-12-18T19:56:35.463Z,102569.19
2022-12-18T19:59:04.504Z,102576.57
2022-12-18T20:01:32.629Z,102581.59
2022-12-18T20:04:00.707Z,102588.23
2022-12-18T20:06:32.303Z,102587.91
2022-12-18T20:09:03.315Z,102581.56
2022-12-18T20:11:32.107Z,102580.86
2022-12-18T20:13:59.684Z,102578.27
2022-12-18T20:16:30.223Z,102581.56
2022-12-18T20:18:58.742Z,102583.84
2022-12-18T20:21:26.887Z,102590.49
2022-12-18T20:23:55.058Z,102587.77
2022-12-18T20:26:23.333Z,102586.91
2022-12-18T20:28:50.997Z,102591.11
2022-12-18T20:31:18.962Z,102594.47
2022-12-18T20:33:48.755Z,102595.27
2022-12-18T20:36:22.548Z,102598.82
2022-12-18T20:38:57.190Z,102601.27
2022-12-18T20:41:26.107Z,102597.14
2022-12-18T20:43:55.418Z,102593.98
2022-12-18T20:46:23.139Z,102599.35
2022-12-18T20:48:50.805Z,102599.83
2022-12-18T20:51:20.868Z,102597.55
2022-12-18T20:53:48.862Z,102604.44
2022-12-18T20:56:21.161Z,102604.02
2022-12-18T20:58:51.313Z,102606.91
2022-12-18T21:01:24.408Z,102607.48
2022-12-18T21:03:52.612Z,102606.36
2022-12-18T21:06:22.181Z,102608.15
2022-12-18T21:08:50.060Z,102616.91
2022-12-18T21:11:26.173Z,102616.14
2022-12-18T21:13:54.248Z,102618.48
2022-12-18T21:16:21.893Z,102625.52
2022-12-18T21:18:49.521Z,102625.80
2022-12-18T21:21:21.911Z,102629.53
2022-12-18T21:23:54.763Z,102626.30
2022-12-18T21:26:27.718Z,102629.65
2022-12-18T21:28:58.220Z,102627.71
2022-12-18T21:31:29.069Z,102629.23
2022-12-18T21:34:00.963Z,102625.60
2022-12-18T21:36:31.555Z,102624.59
2022-12-18T21:39:00.098Z,102618.25
2022-12-18T21:41:28.638Z,102616.52
2022-12-18T21:43:56.516Z,102608.58
2022-12-18T21:46:24.238Z,102611.05
2022-12-18T21:48:51.859Z,102616.09
2022-12-18T21:51:19.453Z,102611.29
2022-12-18T21:53:47.060Z,102601.56
2022-12-18T21:56:16.719Z,102600.00
2022-12-18T21:58:56.824Z,102603.79
2022-12-18T22:01:25.150Z,102605.65
2022-12-18T22:04:01.603Z,102609.60
2022-12-18T22:06:29.210Z,102598.67
2022-12-18T22:08:56.821Z,102597.00
2022-12-18T22:11:24.424Z,102601.81
2022-12-18T22:13:52.385Z,102600.14
2022-12-18T22:16:20.001Z,102600.98
2022-12-18T22:18:47.641Z,102605.21
2022-12-18T22:21:42.633Z,102603.80
2022-12-18T22:24:14.921Z,102603.66
2022-12-18T22:26:43.537Z,102604.21
2022-12-18T22:29:14.980Z,102599.77
2022-12-18T22:31:42.852Z,102599.97
2022-12-18T22:34:10.802Z,102604.98
2022-12-18T22:36:47.028Z,102606.11
2022-12-18T22:39:17.873Z,102606.50
2022-12-18T22:41:45.843Z,102606.64
2022-12-18T22:44:15.217Z,102610.20
2022-12-18T22:46:59.677Z,102612.67
2022-12-18T22:49:34.860Z,102620.11
2022-12-18T22:52:07.976Z,102619.96
2022-12-18T22:54:35.755Z,102616.05
2022-12-18T22:57:03.447Z,102619.90
2022-12-18T22:59:31.048Z,102620.38
2022-12-18T23:01:59.583Z,102623.27
2022-12-18T23:04:28.105Z,102625.38
2022-12-18T23:06:59.555Z,102630.04
2022-12-18T23:09:27.373Z,102626.67
2022-12-18T23:11:54.967Z,102631.59
2022-12-18T23:14:22.538Z,102631.08
2022-12-18T23:16:50.436Z,102629.11
2022-12-18T23:19:21.619Z,102625.44
2022-12-18T23:21:51.655Z,102626.80
2022-12-18T23:24:20.517Z,102625.96
2022-12-18T23:26:48.317Z,102633.66
2022-12-18T23:29:15.980Z,102631.56
2022-12-18T23:31:43.553Z,102631.20
2022-12-18T23:34:15.648Z,102627.10
2022-12-18T23:36:46.406Z,102624.67
2022-12-18T23:39:29.017Z,102620.55
2022-12-18T23:41:59.108Z,102621.55
2022-12-18T23:44:27.001Z,102620.67
2022-12-18T23:46:55.673Z,102617.97
2022-12-18T23:49:23.553Z,102624.64
2022-12-18T23:51:54.289Z,102624.06
2022-12-18T23:54:32.770Z,102620.05
2022-12-18T23:57:01.571Z,102631.50
2022-12-18T23:59:29.151Z,102636.05
